Terminal Aerodrome Forecast
Issued by NWS Pocatello, ID

Home | Current Version | Previous Version | Text Only | Print | Product List | Glossary On
Versions: 1 2 3 4 5 6 7 8 9 10 11 12 13 14 15 16 17 18 19 20 21 22 23 24
000
FTUS45 KPIH 151120
TAFBYI
TAF
KBYI 151120Z 1512/1612 08006KT P6SM FEW200
     FM151800 VRB05KT P6SM FEW120
     FM152200 21010G20KT P6SM FEW110
     FM160300 19007KT P6SM SCT120 SCT200=

USA.gov is the U.S. government's official web portal to all federal, state and local government web resources and services.